Time;durP1;ratioP1;P1;durP2;ratioP2;P2;SDS_P1;SDS_P2;PMS_P1;PMS_P2;Temp;Humidity;BMP_temperature;BMP_pressure;BME280_temperature;BME280_humidity;BME280_pressure;Samples;Min_cycle;Max_cycle;Signal;HPM_P1;HPM_P2
2024/03/30 00:02:17;;;;;;;3.58;2.20;;;;;;;11.57;47.68;99370.97;5063045;28;20044;-76
2024/03/30 00:04:44;;;;;;;3.67;2.30;;;;;;;11.57;47.81;99369.06;5047066;28;20040;-76
2024/03/30 00:07:11;;;;;;;3.30;2.15;;;;;;;11.54;47.66;99372.19;5064333;28;20049;-76
2024/03/30 00:09:37;;;;;;;3.38;1.98;;;;;;;11.54;47.88;99372.19;5042284;28;20500;-76
2024/03/30 00:12:04;;;;;;;3.53;2.30;;;;;;;11.53;47.84;99366.88;5041882;28;20037;-76
2024/03/30 00:14:31;;;;;;;3.95;2.33;;;;;;;11.51;48.19;99364.31;5059948;28;20177;-76
2024/03/30 00:16:58;;;;;;;4.75;2.35;;;;;;;11.52;47.95;99362.44;5062018;28;20123;-76
2024/03/30 00:19:24;;;;;;;3.03;1.90;;;;;;;11.51;48.52;99361.56;5057151;28;20028;-77
2024/03/30 00:21:52;;;;;;;2.83;1.75;;;;;;;11.52;48.25;99366.03;5037671;28;20071;-77
2024/03/30 00:24:18;;;;;;;3.03;1.83;;;;;;;11.51;48.57;99371.69;5063627;28;20055;-77
2024/03/30 00:26:45;;;;;;;2.45;1.65;;;;;;;11.51;48.27;99374.41;5037130;28;20040;-76
2024/03/30 00:29:11;;;;;;;2.85;1.80;;;;;;;11.51;48.57;99367.06;5046814;28;20052;-76
2024/03/30 00:31:38;;;;;;;3.30;1.88;;;;;;;11.51;48.15;99353.34;5065002;28;20037;-76
2024/03/30 00:34:04;;;;;;;3.50;2.00;;;;;;;11.51;48.62;99358.84;5065155;28;20036;-77
2024/03/30 00:36:31;;;;;;;2.97;1.70;;;;;;;11.51;48.55;99350.63;5055717;28;20431;-77
2024/03/30 00:39:00;;;;;;;2.50;1.60;;;;;;;11.52;48.91;99340.50;5049640;28;20517;-78
2024/03/30 00:41:27;;;;;;;3.00;1.73;;;;;;;11.48;47.92;99323.56;5039269;28;20075;-77
2024/03/30 00:43:53;;;;;;;2.45;1.60;;;;;;;11.46;48.13;99309.22;5044922;28;20124;-76
2024/03/30 00:46:20;;;;;;;2.40;1.92;;;;;;;11.45;48.53;99312.97;5067094;28;20049;-77
2024/03/30 00:48:46;;;;;;;3.15;1.55;;;;;;;11.44;48.36;99297.56;5060537;28;20033;-78
2024/03/30 00:51:13;;;;;;;4.97;1.83;;;;;;;11.42;48.18;99310.59;5045998;28;21338;-77
2024/03/30 00:53:39;;;;;;;2.92;1.90;;;;;;;11.41;48.35;99310.75;5062560;28;20049;-77
2024/03/30 00:56:08;;;;;;;3.00;1.70;;;;;;;11.41;48.79;99305.28;5052517;28;20040;-77
2024/03/30 00:58:34;;;;;;;3.33;2.00;;;;;;;11.39;48.38;99299.97;5047593;28;20040;-76
2024/03/30 01:01:02;;;;;;;3.25;1.50;;;;;;;11.36;48.62;99281.16;5064458;28;20098;-77
2024/03/30 01:03:28;;;;;;;3.08;1.60;;;;;;;11.36;48.11;99289.38;5050169;28;20049;-76
2024/03/30 01:05:55;;;;;;;2.55;1.60;;;;;;;11.34;48.33;99270.38;5063043;28;20103;-76
2024/03/30 01:08:21;;;;;;;3.13;1.58;;;;;;;11.33;48.30;99265.94;5049033;28;20052;-77
2024/03/30 01:10:49;;;;;;;3.20;1.60;;;;;;;11.32;48.08;99256.00;5046261;28;20049;-77
2024/03/30 01:13:16;;;;;;;2.55;1.67;;;;;;;11.31;48.52;99256.19;5048586;28;20511;-77
2024/03/30 01:15:44;;;;;;;3.28;1.73;;;;;;;11.29;48.71;99258.28;5067452;28;20033;-77
2024/03/30 01:18:10;;;;;;;3.13;1.38;;;;;;;11.27;48.79;99258.44;5066807;28;20036;-77
2024/03/30 01:20:38;;;;;;;3.47;1.65;;;;;;;11.26;48.33;99255.88;5042714;28;20041;-77
2024/03/30 01:23:05;;;;;;;3.05;1.52;;;;;;;11.25;48.31;99252.28;5048909;28;20063;-77
2024/03/30 01:25:33;;;;;;;3.10;1.65;;;;;;;11.24;48.27;99253.31;5066848;28;20101;-77
2024/03/30 01:28:00;;;;;;;3.15;1.70;;;;;;;11.25;48.85;99243.22;5048046;28;20048;-77
2024/03/30 01:30:29;;;;;;;2.65;1.50;;;;;;;11.24;48.56;99249.72;5058517;28;20037;-77
2024/03/30 01:32:56;;;;;;;2.85;1.70;;;;;;;11.22;48.91;99252.66;5067428;28;20044;-77
2024/03/30 01:35:23;;;;;;;3.00;1.70;;;;;;;11.22;48.48;99251.81;5066509;28;20048;-76
2024/03/30 01:37:50;;;;;;;2.90;1.77;;;;;;;11.21;48.89;99250.09;5066293;28;20040;-77
2024/03/30 01:40:17;;;;;;;3.03;1.70;;;;;;;11.20;48.52;99254.72;5064858;28;20045;-76
2024/03/30 01:42:43;;;;;;;3.10;1.80;;;;;;;11.19;48.60;99241.19;5061558;28;20037;-76
2024/03/30 01:45:09;;;;;;;3.28;1.85;;;;;;;11.18;48.60;99234.84;5045274;28;20593;-76
2024/03/30 01:47:37;;;;;;;3.35;1.80;;;;;;;11.19;49.07;99239.31;5064941;28;20032;-76
2024/03/30 01:50:07;;;;;;;3.05;1.98;;;;;;;11.17;48.57;99237.78;5048102;28;20052;-77
2024/03/30 01:52:36;;;;;;;2.75;1.70;;;;;;;11.15;48.98;99221.50;5045240;28;20094;-76
2024/03/30 01:55:04;;;;;;;2.67;1.73;;;;;;;11.14;49.02;99228.00;5041518;28;20041;-77
2024/03/30 01:57:33;;;;;;;2.50;1.52;;;;;;;11.13;48.56;99229.06;5067487;28;20043;-77
2024/03/30 01:59:59;;;;;;;2.65;1.73;;;;;;;11.12;48.97;99221.88;5060670;28;20424;-76
2024/03/30 02:02:28;;;;;;;3.35;1.85;;;;;;;11.12;48.66;99215.56;5048318;28;20037;-77
2024/03/30 02:04:56;;;;;;;4.40;1.80;;;;;;;11.10;48.82;99218.47;5061728;28;20040;-77
2024/03/30 02:07:23;;;;;;;2.97;1.80;;;;;;;11.08;49.06;99209.56;5066543;28;20123;-77
2024/03/30 02:09:49;;;;;;;2.92;1.65;;;;;;;11.06;49.04;99197.94;5060225;28;20573;-76
2024/03/30 02:12:17;;;;;;;3.13;1.65;;;;;;;11.05;48.96;99195.41;5058357;28;20059;-76
2024/03/30 02:14:44;;;;;;;2.97;1.85;;;;;;;11.05;48.66;99200.88;5064428;28;20070;-76
2024/03/30 02:17:11;;;;;;;2.88;1.70;;;;;;;11.02;48.94;99185.66;5056299;28;20049;-76
2024/03/30 02:19:44;;;;;;;3.08;1.80;;;;;;;11.02;49.27;99188.38;5040167;28;20033;-77
2024/03/30 02:22:16;;;;;;;3.22;1.55;;;;;;;10.97;48.93;99193.56;5064498;28;20044;-77
2024/03/30 02:24:44;;;;;;;;;;;;;;;10.71;49.90;99187.47;5065010;28;20047;-77
2024/03/30 02:27:11;;;;;;;1.98;1.35;;;;;;;10.91;49.17;99180.56;5062904;28;19986;-76
2024/03/30 02:29:37;;;;;;;2.13;1.45;;;;;;;10.95;49.02;99185.50;5033817;28;20028;-76
2024/03/30 02:32:07;;;;;;;2.75;1.70;;;;;;;10.95;49.14;99182.78;5062842;28;20036;-77
2024/03/30 02:34:33;;;;;;;2.40;1.60;;;;;;;10.95;48.99;99179.19;5044301;28;20048;-76
2024/03/30 02:37:00;;;;;;;2.97;1.92;;;;;;;10.95;49.43;99168.22;5048654;28;20408;-76
2024/03/30 02:39:26;;;;;;;3.63;1.70;;;;;;;10.94;48.86;99161.06;5064949;28;20086;-76
2024/03/30 02:41:55;;;;;;;2.50;1.60;;;;;;;10.96;49.15;99161.72;5046411;28;20535;-77
2024/03/30 02:44:21;;;;;;;3.70;1.80;;;;;;;10.92;49.36;99161.22;5060115;28;20049;-77
2024/03/30 02:46:48;;;;;;;3.25;1.70;;;;;;;10.92;48.92;99153.00;5046638;28;20233;-77
2024/03/30 02:49:14;;;;;;;3.45;1.75;;;;;;;10.91;49.13;99145.81;5064210;28;20031;-77
2024/03/30 02:51:41;;;;;;;4.18;1.90;;;;;;;10.91;49.05;99142.22;5043315;28;20045;-77
2024/03/30 02:54:07;;;;;;;2.88;1.42;;;;;;;10.91;49.14;99134.88;5047308;28;20500;-76
2024/03/30 02:56:34;;;;;;;3.15;1.60;;;;;;;10.91;49.30;99136.75;5054708;28;20446;-77
2024/03/30 02:59:02;;;;;;;2.65;1.58;;;;;;;10.93;49.09;99140.19;5037441;28;20037;-76
2024/03/30 03:01:29;;;;;;;2.58;1.50;;;;;;;10.91;49.17;99134.88;5048598;28;20452;-77
2024/03/30 03:03:55;;;;;;;2.67;1.58;;;;;;;10.92;49.04;99127.53;5052807;28;20047;-77
2024/03/30 03:06:22;;;;;;;3.03;1.83;;;;;;;10.91;49.63;99123.94;5031823;28;20480;-77
2024/03/30 03:08:48;;;;;;;2.95;1.63;;;;;;;10.92;49.08;99139.31;5033592;28;20056;-76
2024/03/30 03:11:14;;;;;;;2.55;1.75;;;;;;;10.91;49.20;99132.13;5045130;28;20045;-76
2024/03/30 03:13:40;;;;;;;2.92;1.80;;;;;;;10.90;49.41;99126.84;5043385;28;20044;-76
2024/03/30 03:16:09;;;;;;;3.58;1.85;;;;;;;10.93;49.28;99129.22;5030836;28;20511;-76
2024/03/30 03:18:35;;;;;;;3.00;1.88;;;;;;;10.89;49.19;99122.44;5023344;28;20036;-76
2024/03/30 03:21:02;;;;;;;2.42;1.77;;;;;;;10.89;49.30;99128.75;5043048;28;20040;-76
2024/03/30 03:23:30;;;;;;;3.30;1.80;;;;;;;10.87;48.88;99128.06;5029939;28;20048;-77
2024/03/30 03:25:58;;;;;;;2.55;1.58;;;;;;;10.85;49.12;99149.28;5050584;28;20040;-77
2024/03/30 03:28:24;;;;;;;3.08;2.03;;;;;;;10.85;49.00;99143.81;5051175;28;20055;-77
2024/03/30 03:30:51;;;;;;;3.22;1.77;;;;;;;10.84;49.00;99147.56;5030925;28;20032;-76
2024/03/30 03:33:18;;;;;;;3.35;1.85;;;;;;;10.85;49.60;99132.88;5046748;28;20511;-77
2024/03/30 03:35:45;;;;;;;3.80;1.88;;;;;;;10.84;49.38;99133.03;5047340;28;20048;-76
2024/03/30 03:38:11;;;;;;;3.67;2.00;;;;;;;10.84;49.60;99124.81;5047283;28;20466;-76
2024/03/30 03:40:38;;;;;;;3.22;1.95;;;;;;;10.83;49.81;99123.97;5034386;28;20045;-76
2024/03/30 03:43:04;;;;;;;2.83;1.90;;;;;;;10.84;49.17;99124.81;5046784;28;20491;-77
2024/03/30 03:45:31;;;;;;;3.10;1.80;;;;;;;10.83;49.85;99115.75;5026112;28;20075;-77
2024/03/30 03:47:57;;;;;;;2.70;1.70;;;;;;;10.84;49.80;99116.63;5035896;28;20051;-77
2024/03/30 03:50:25;;;;;;;3.00;1.92;;;;;;;10.86;49.65;99120.03;5042848;28;20048;-76
2024/03/30 03:52:51;;;;;;;2.90;1.90;;;;;;;10.85;49.75;99121.06;5048955;28;20496;-76
2024/03/30 03:55:18;;;;;;;2.38;1.60;;;;;;;10.86;49.44;99120.03;5031539;28;20087;-76
2024/03/30 03:57:44;;;;;;;3.35;1.77;;;;;;;10.86;49.32;99112.69;5053065;28;20041;-76
2024/03/30 04:00:12;;;;;;;6.25;2.22;;;;;;;10.86;49.32;99120.88;5047855;28;20422;-77
2024/03/30 04:02:38;;;;;;;3.05;1.90;;;;;;;10.86;49.82;99120.03;5048289;28;20087;-76
2024/03/30 04:05:05;;;;;;;3.55;2.15;;;;;;;10.86;49.62;99118.16;5046410;28;20507;-78
2024/03/30 04:07:33;;;;;;;3.10;2.00;;;;;;;10.88;49.44;99117.97;5050412;28;20049;-77
2024/03/30 04:10:00;;;;;;;3.55;2.10;;;;;;;10.86;49.31;99114.56;5064699;28;20044;-76
2024/03/30 04:12:26;;;;;;;3.05;1.98;;;;;;;10.84;49.27;99109.25;5042625;28;20046;-77
2024/03/30 04:14:52;;;;;;;2.80;1.95;;;;;;;10.83;49.10;99113.03;5068895;28;20090;-76
2024/03/30 04:17:18;;;;;;;3.05;2.00;;;;;;;10.81;49.04;99101.41;5067842;28;20048;-76
2024/03/30 04:19:45;;;;;;;3.50;2.28;;;;;;;10.79;49.37;99108.94;5048124;28;20028;-77
2024/03/30 04:22:11;;;;;;;3.92;2.22;;;;;;;10.78;49.18;99106.38;5072108;28;20499;-76
2024/03/30 04:24:39;;;;;;;3.15;2.05;;;;;;;10.76;49.82;99098.34;5055983;28;20054;-77
2024/03/30 04:27:06;;;;;;;3.45;2.30;;;;;;;10.76;49.66;99100.25;5067942;28;20041;-76
2024/03/30 04:29:33;;;;;;;4.25;2.10;;;;;;;10.74;49.55;99094.09;5049151;28;20352;-77
2024/03/30 04:31:58;;;;;;;3.00;2.10;;;;;;;10.71;49.58;99094.47;5068181;28;20044;-76
2024/03/30 04:34:26;;;;;;;3.33;1.98;;;;;;;10.70;49.21;99095.47;5070552;28;20044;-76
2024/03/30 04:36:53;;;;;;;3.38;2.10;;;;;;;10.70;49.43;99090.00;5065794;28;20280;-76
2024/03/30 04:39:20;;;;;;;3.58;2.20;;;;;;;10.70;49.51;99090.00;5053062;28;20078;-76
2024/03/30 04:41:48;;;;;;;3.55;2.33;;;;;;;10.71;49.72;99084.38;5050331;28;20041;-77
2024/03/30 04:44:15;;;;;;;4.28;2.20;;;;;;;10.69;49.44;99091.03;5050599;28;20047;-76
2024/03/30 04:46:41;;;;;;;2.92;2.08;;;;;;;10.69;49.59;99091.03;5051717;28;20491;-76
2024/03/30 04:49:08;;;;;;;3.35;2.42;;;;;;;10.69;49.59;99080.09;5056116;28;20097;-76
2024/03/30 04:51:34;;;;;;;4.00;2.28;;;;;;;10.69;49.83;99085.56;5051248;28;20298;-76
2024/03/30 04:54:01;;;;;;;3.80;2.15;;;;;;;10.69;49.93;99082.84;5061594;28;20048;-77
2024/03/30 04:56:27;;;;;;;3.60;2.20;;;;;;;10.68;49.63;99071.03;5066973;28;20040;-76
2024/03/30 04:58:55;;;;;;;3.47;2.20;;;;;;;10.71;50.17;99072.56;5070377;28;20048;-77
2024/03/30 05:01:21;;;;;;;3.08;2.17;;;;;;;10.68;49.54;99070.19;5054839;28;20553;-76
2024/03/30 05:03:48;;;;;;;3.42;2.25;;;;;;;10.68;49.81;99056.50;5052169;28;20389;-77
2024/03/30 05:06:14;;;;;;;3.53;2.22;;;;;;;10.68;49.64;99059.25;5062272;28;20040;-76
2024/03/30 05:08:41;;;;;;;3.40;2.10;;;;;;;10.68;49.70;99056.50;5050001;28;20273;-76
2024/03/30 05:11:07;;;;;;;4.05;2.58;;;;;;;10.68;49.83;99062.81;5069533;28;20044;-77
2024/03/30 05:13:34;;;;;;;3.58;2.20;;;;;;;10.69;49.76;99063.69;5052168;28;20040;-76
2024/03/30 05:16:01;;;;;;;4.28;2.38;;;;;;;10.69;49.90;99066.41;5054431;28;20050;-77
2024/03/30 05:18:28;;;;;;;3.42;2.25;;;;;;;10.69;50.01;99055.47;5054309;28;20098;-77
2024/03/30 05:20:57;;;;;;;3.20;2.40;;;;;;;10.68;49.78;99062.81;5050027;28;20082;-76
2024/03/30 05:23:25;;;;;;;3.80;2.40;;;;;;;10.68;49.77;99057.34;5069197;28;20040;-77
2024/03/30 05:25:52;;;;;;;4.45;2.47;;;;;;;10.67;49.95;99054.78;5055707;28;20052;-76
2024/03/30 05:28:21;;;;;;;3.72;2.35;;;;;;;10.68;49.52;99061.97;5053801;28;20056;-76
2024/03/30 05:30:49;;;;;;;3.60;2.30;;;;;;;10.66;49.49;99064.03;5049409;28;20138;-76
2024/03/30 05:33:19;;;;;;;3.58;2.25;;;;;;;10.66;50.27;99059.41;5071099;28;20044;-75
2024/03/30 05:35:46;;;;;;;4.28;2.55;;;;;;;10.65;49.60;99057.69;5064643;28;20085;-75
2024/03/30 05:38:13;;;;;;;3.80;2.60;;;;;;;10.66;49.87;99061.28;5070382;28;20055;-76
2024/03/30 05:40:40;;;;;;;3.72;2.45;;;;;;;10.65;49.57;99057.69;5072425;28;20028;-76
2024/03/30 05:43:06;;;;;;;4.57;2.60;;;;;;;10.66;50.10;99056.66;5066030;28;20048;-75
2024/03/30 05:45:34;;;;;;;4.10;2.60;;;;;;;10.67;49.61;99052.91;5075581;28;20059;-75
2024/03/30 05:48:00;;;;;;;3.78;2.42;;;;;;;10.66;49.74;99061.28;5071421;28;20039;-78
2024/03/30 05:50:30;;;;;;;4.90;2.75;;;;;;;10.68;49.87;99057.34;5056304;28;20044;-76
2024/03/30 05:52:56;;;;;;;4.35;2.85;;;;;;;10.67;49.93;99063.00;5050708;28;20407;-76
2024/03/30 05:55:23;;;;;;;3.83;2.40;;;;;;;10.68;50.12;99059.25;5067636;28;20044;-76
2024/03/30 05:57:50;;;;;;;4.18;2.70;;;;;;;10.69;50.06;99060.94;5053071;28;20089;-76
2024/03/30 06:00:17;;;;;;;4.70;2.55;;;;;;;10.69;50.18;99064.53;5056157;28;20066;-76
2024/03/30 06:02:45;;;;;;;4.30;2.70;;;;;;;10.71;50.18;99061.63;5069512;28;20106;-76
2024/03/30 06:05:12;;;;;;;3.85;2.65;;;;;;;10.71;50.16;99050.69;5057457;28;20044;-76
2024/03/30 06:07:40;;;;;;;4.40;2.70;;;;;;;10.74;49.96;99066.72;5065534;28;20044;-76
2024/03/30 06:10:09;;;;;;;4.18;2.92;;;;;;;10.74;50.29;99058.50;5067809;28;20036;-77
2024/03/30 06:12:35;;;;;;;4.57;2.90;;;;;;;10.74;50.49;99055.78;5065388;28;20420;-76
2024/03/30 06:15:02;;;;;;;4.78;2.97;;;;;;;10.74;49.95;99051.16;5065889;28;20047;-76
2024/03/30 06:17:28;;;;;;;4.72;3.20;;;;;;;10.75;50.03;99052.00;5069033;28;20047;-76
2024/03/30 06:19:55;;;;;;;4.45;3.03;;;;;;;10.76;50.40;99053.72;5068987;28;20059;-76
2024/03/30 06:22:23;;;;;;;5.15;3.00;;;;;;;10.77;50.09;99042.59;5066160;28;20427;-76
2024/03/30 06:24:51;;;;;;;4.00;2.83;;;;;;;10.79;50.55;99046.03;5068918;28;20044;-76
2024/03/30 06:27:17;;;;;;;4.30;2.80;;;;;;;10.79;50.35;99061.59;5064296;28;20526;-76
2024/03/30 06:29:44;;;;;;;5.05;3.30;;;;;;;10.79;50.27;99062.44;5050458;28;20040;-76
2024/03/30 06:32:10;;;;;;;4.68;3.13;;;;;;;10.80;50.70;99064.16;5067838;28;20047;-76
2024/03/30 06:34:38;;;;;;;3.95;2.90;;;;;;;10.81;50.46;99070.47;5076910;28;20379;-75
2024/03/30 06:37:04;;;;;;;4.53;2.70;;;;;;;10.81;50.44;99074.03;5049858;28;20090;-76
2024/03/30 06:43:40;;;;;;;4.60;2.85;;;;;;;10.82;50.22;99074.88;5062801;28;20126;-75
2024/03/30 06:45:05;;;;;;;3.90;2.90;;;;;;;10.83;50.16;99079.34;5068380;28;20051;-75
2024/03/30 06:47:31;;;;;;;4.15;2.83;;;;;;;10.84;50.31;99078.31;5067727;28;20044;-76
2024/03/30 06:49:58;;;;;;;3.90;3.05;;;;;;;10.85;50.45;99074.53;5074014;28;20052;-74
2024/03/30 06:52:25;;;;;;;4.97;2.72;;;;;;;10.86;50.48;99068.91;5041337;28;20577;-76
2024/03/30 06:54:52;;;;;;;4.00;2.70;;;;;;;10.86;50.35;99087.19;5050690;28;20094;-75
2024/03/30 06:57:19;;;;;;;4.25;2.47;;;;;;;10.88;50.72;99088.72;5041871;28;20081;-75
2024/03/30 06:59:47;;;;;;;4.30;2.60;;;;;;;10.89;50.51;99092.31;5048348;28;20044;-75
2024/03/30 07:02:13;;;;;;;4.45;2.70;;;;;;;10.88;50.47;99096.09;5062378;28;20059;-75
2024/03/30 07:04:39;;;;;;;3.55;2.38;;;;;;;10.87;50.54;99095.22;5059327;28;20040;-77
2024/03/30 07:07:06;;;;;;;4.75;2.40;;;;;;;10.89;50.61;99098.66;5063243;28;20036;-75
2024/03/30 07:09:33;;;;;;;3.42;2.20;;;;;;;10.89;50.96;99092.31;5051090;28;20056;-75
2024/03/30 07:11:58;;;;;;;3.25;2.15;;;;;;;10.89;50.66;99084.13;5061689;28;20040;-75
2024/03/30 07:14:27;;;;;;;4.38;2.50;;;;;;;10.91;50.43;99103.91;5065952;28;20039;-75
2024/03/30 07:16:55;;;;;;;3.33;2.13;;;;;;;10.89;50.83;99089.59;5051527;28;20048;-73
2024/03/30 07:19:22;;;;;;;4.10;2.35;;;;;;;10.90;50.82;99094.84;5048997;28;20064;-75
2024/03/30 07:21:48;;;;;;;3.58;2.03;;;;;;;10.91;50.50;99099.31;5065083;28;20055;-76
2024/03/30 07:24:15;;;;;;;4.25;1.98;;;;;;;10.91;50.92;99095.72;5068469;28;20048;-76
2024/03/30 07:26:43;;;;;;;3.78;2.20;;;;;;;10.92;50.95;99108.38;5054123;28;20037;-75
2024/03/30 07:29:09;;;;;;;4.75;2.25;;;;;;;10.92;51.03;99106.47;5066949;28;20051;-77
2024/03/30 07:31:37;;;;;;;6.88;2.25;;;;;;;10.95;51.07;99119.81;5059176;28;20476;-75
2024/03/30 07:34:03;;;;;;;6.35;2.22;;;;;;;10.94;50.72;99120.00;5047696;28;20090;-76
2024/03/30 07:36:30;;;;;;;4.45;2.50;;;;;;;10.95;50.72;99119.81;5047260;28;20063;-76
2024/03/30 07:38:56;;;;;;;3.58;2.10;;;;;;;10.95;50.81;99114.34;5048078;28;20033;-76
2024/03/30 07:41:23;;;;;;;4.10;2.20;;;;;;;10.97;51.13;99106.81;5062796;28;20047;-73
2024/03/30 07:43:49;;;;;;;4.65;2.00;;;;;;;10.99;50.81;99128.50;5047437;28;20512;-73
2024/03/30 07:46:16;;;;;;;4.65;1.95;;;;;;;11.01;50.84;99126.44;5065014;28;20047;-75
2024/03/30 07:48:43;;;;;;;3.63;2.10;;;;;;;11.02;51.00;99119.94;5067559;28;20048;-75
2024/03/30 07:51:10;;;;;;;3.65;1.95;;;;;;;11.02;50.91;99116.34;5045514;28;20097;-75
2024/03/30 07:53:36;;;;;;;3.97;1.90;;;;;;;11.04;50.77;99111.56;5062127;28;20044;-75
2024/03/30 07:56:03;;;;;;;3.42;2.17;;;;;;;11.05;51.16;99096.84;5060524;28;20071;-75
2024/03/30 07:58:31;;;;;;;3.13;2.00;;;;;;;11.05;50.67;99096.84;5049719;23;20358;-85
2024/03/30 08:05:14;;;;;;;3.13;1.80;;;;;;;11.04;51.33;99079.56;5027182;28;20056;-86
2024/03/30 08:15:09;;;;;;;3.72;1.73;;;;;;;11.09;51.09;99082.59;5004871;28;20046;-85
2024/03/30 08:17:36;;;;;;;4.28;1.88;;;;;;;11.14;51.08;99073.88;5014221;28;20722;-85
2024/03/30 08:20:10;;;;;;;4.25;1.90;;;;;;;11.17;51.31;99070.75;5009748;28;20037;-86
2024/03/30 08:22:41;;;;;;;4.10;1.90;;;;;;;11.18;51.18;99058.75;5000512;28;20046;-85
2024/03/30 08:25:12;;;;;;;4.32;1.50;;;;;;;11.21;50.73;99055.66;5009161;28;20046;-84
2024/03/30 08:27:39;;;;;;;3.78;1.70;;;;;;;11.24;51.30;99042.44;5006944;28;20113;-86
2024/03/30 08:30:10;;;;;;;3.25;1.50;;;;;;;11.29;50.97;99045.50;5002438;28;20062;-85
2024/03/30 08:32:38;;;;;;;3.45;1.60;;;;;;;11.31;50.90;99059.84;4998903;28;20076;-85
2024/03/30 08:35:06;;;;;;;3.30;1.60;;;;;;;11.33;51.17;99035.03;4999150;28;20056;-86
2024/03/30 08:37:34;;;;;;;3.47;1.80;;;;;;;11.40;51.20;99032.38;5011152;28;20043;-86
2024/03/30 08:40:01;;;;;;;2.90;1.60;;;;;;;11.44;51.05;99031.84;4995824;28;20498;-85
2024/03/30 08:42:27;;;;;;;3.95;1.55;;;;;;;11.50;51.09;99043.94;5003083;28;20050;-85
2024/03/30 08:44:54;;;;;;;5.05;1.63;;;;;;;11.52;51.59;99050.97;5009082;28;20085;-85
2024/03/30 08:47:20;;;;;;;3.92;1.35;;;;;;;11.57;51.32;99051.25;4999952;28;20076;-85
2024/03/30 08:49:48;;;;;;;3.38;1.48;;;;;;;11.62;51.14;99034.31;4999461;28;20048;-85
2024/03/30 08:52:18;;;;;;;3.47;1.58;;;;;;;11.67;51.35;99023.63;4995732;28;20042;-86
2024/03/30 08:54:47;;;;;;;4.38;1.67;;;;;;;11.77;51.22;99035.19;4999765;28;20062;-85
2024/03/30 08:57:14;;;;;;;5.90;1.58;;;;;;;11.82;51.21;99023.63;5002298;28;20037;-85
2024/03/30 08:59:40;;;;;;;3.55;1.42;;;;;;;11.87;50.97;99021.22;4996254;28;20046;-85
2024/03/30 09:02:07;;;;;;;2.95;1.33;;;;;;;11.91;50.90;99031.59;4984906;28;20063;-85
2024/03/30 09:04:33;;;;;;;4.32;1.50;;;;;;;11.98;50.90;99037.19;5003026;28;20046;-86
2024/03/30 09:07:03;;;;;;;6.32;1.63;;;;;;;12.02;50.54;99038.53;4992816;28;20054;-86
2024/03/30 09:09:32;;;;;;;3.00;1.48;;;;;;;12.07;50.41;99038.78;5003237;28;20050;-86
2024/03/30 09:12:03;;;;;;;3.03;1.35;;;;;;;12.13;50.48;99048.19;5002509;28;20034;-85
2024/03/30 09:14:30;;;;;;;4.35;1.52;;;;;;;12.18;50.09;99056.69;4977924;28;20129;-86
2024/03/30 09:16:58;;;;;;;5.90;1.83;;;;;;;12.20;49.87;99047.22;4990114;28;20041;-86
2024/03/30 09:19:25;;;;;;;5.70;1.70;;;;;;;12.26;49.78;99062.94;4996867;28;20046;-85
2024/03/30 09:21:55;;;;;;;3.80;1.80;;;;;;;12.28;49.72;99068.22;4997704;28;20042;-86
2024/03/30 09:24:29;;;;;;;4.40;1.75;;;;;;;12.36;49.97;99071.72;4989272;28;20562;-86
2024/03/30 09:27:08;;;;;;;6.28;2.15;;;;;;;12.39;50.04;99073.22;4999120;28;20045;-87
2024/03/30 09:29:34;;;;;;;6.93;1.80;;;;;;;12.41;49.64;99073.91;5012199;28;20038;-87
2024/03/30 09:32:02;;;;;;;5.38;2.03;;;;;;;12.45;49.99;99077.97;5020304;28;20053;-87
2024/03/30 09:34:28;;;;;;;5.55;1.60;;;;;;;12.49;49.76;99087.50;4983348;28;20042;-86
2024/03/30 09:36:56;;;;;;;6.85;1.65;;;;;;;12.55;49.41;99080.41;4980671;28;20083;-86
2024/03/30 09:39:22;;;;;;;5.30;1.73;;;;;;;12.59;49.11;99073.50;4998225;28;20038;-86
2024/03/30 09:41:53;;;;;;;6.68;2.13;;;;;;;12.66;48.98;99104.66;5005700;28;20673;-86
2024/03/30 09:44:21;;;;;;;5.22;1.60;;;;;;;12.67;48.98;99066.06;4994509;28;20053;-85
2024/03/30 09:46:53;;;;;;;6.80;1.85;;;;;;;12.73;48.92;99068.03;4986081;28;20481;-85
2024/03/30 09:49:23;;;;;;;6.15;1.60;;;;;;;12.71;48.78;99075.59;5000339;28;20045;-85
2024/03/30 09:51:54;;;;;;;8.55;1.90;;;;;;;12.78;48.66;99073.81;4997958;28;20052;-86
2024/03/30 09:54:21;;;;;;;5.78;1.85;;;;;;;12.80;48.52;99085.44;4977071;28;20435;-86
2024/03/30 09:57:00;;;;;;;6.07;2.03;;;;;;;12.87;47.79;99091.03;5012219;28;20057;-85
2024/03/30 09:59:28;;;;;;;8.63;2.08;;;;;;;12.93;48.47;99081.16;4977103;28;20049;-85
2024/03/30 10:01:58;;;;;;;7.70;2.20;;;;;;;12.95;48.59;99079.94;4981027;28;20046;-85
2024/03/30 10:04:24;;;;;;;6.15;1.92;;;;;;;12.97;47.92;99065.97;4981643;28;20045;-87
2024/03/30 10:06:55;;;;;;;7.43;2.20;;;;;;;13.03;47.63;99070.72;4987437;28;20065;-86
2024/03/30 10:09:25;;;;;;;8.93;1.90;;;;;;;13.10;47.75;99066.16;5003396;28;20077;-85
2024/03/30 10:12:00;;;;;;;9.20;2.65;;;;;;;13.17;47.36;99076.16;5009203;28;20080;-84
2024/03/30 10:14:33;;;;;;;7.15;2.33;;;;;;;13.23;46.90;99080.03;4981316;28;20035;-85
2024/03/30 10:17:12;;;;;;;10.52;2.65;;;;;;;13.24;47.18;99079.84;4987188;28;20058;-86
2024/03/30 10:19:40;;;;;;;9.13;2.42;;;;;;;13.30;47.40;99058.97;4977838;28;20038;-85
2024/03/30 10:22:17;;;;;;;9.18;2.55;;;;;;;13.36;47.15;99071.94;4976292;28;20601;-85
2024/03/30 10:24:44;;;;;;;12.02;2.35;;;;;;;13.43;46.61;99083.00;4984236;28;20038;-84
2024/03/30 10:27:14;;;;;;;8.27;2.20;;;;;;;13.46;46.38;99080.69;5000790;28;20136;-85
2024/03/30 10:29:45;;;;;;;8.98;2.47;;;;;;;13.56;45.69;99075.75;4994299;28;20042;-85
2024/03/30 10:32:12;;;;;;;10.77;2.47;;;;;;;13.60;46.00;99081.72;4987879;28;20052;-85
2024/03/30 10:34:40;;;;;;;8.80;2.33;;;;;;;13.65;46.14;99078.38;4997557;28;20493;-86
2024/03/30 10:37:08;;;;;;;10.50;2.17;;;;;;;13.67;45.78;99079.88;4989360;28;20065;-85
2024/03/30 10:39:35;;;;;;;9.60;2.47;;;;;;;13.72;45.99;99085.63;4974899;28;20073;-85
2024/03/30 10:42:02;;;;;;;9.75;2.67;;;;;;;13.77;45.25;99090.53;4991327;28;20046;-85
2024/03/30 10:44:29;;;;;;;10.90;2.47;;;;;;;13.81;45.17;99089.09;4984062;28;20517;-85
2024/03/30 10:46:59;;;;;;;12.52;3.10;;;;;;;13.85;44.30;99094.00;4994027;28;20536;-86
2024/03/30 10:49:26;;;;;;;11.98;2.55;;;;;;;13.87;44.98;99096.53;4995584;28;20038;-85
2024/03/30 10:51:54;;;;;;;13.52;2.22;;;;;;;13.93;44.55;99098.50;4983457;28;20050;-85
2024/03/30 10:54:20;;;;;;;12.82;3.30;;;;;;;13.95;44.37;99105.50;4976156;28;20053;-85
2024/03/30 10:56:57;;;;;;;11.38;2.63;;;;;;;14.00;43.54;99110.41;4977558;28;20394;-86
2024/03/30 10:59:24;;;;;;;12.57;2.83;;;;;;;14.02;43.75;99112.97;5001667;28;20046;-84
2024/03/30 11:01:55;;;;;;;8.02;2.30;;;;;;;14.06;43.34;99123.34;4976702;28;20041;-87
2024/03/30 11:04:25;;;;;;;10.93;2.35;;;;;;;14.09;42.67;99113.88;5002065;28;20050;-87
2024/03/30 11:06:54;;;;;;;10.90;2.28;;;;;;;14.10;43.36;99104.56;4976052;28;20116;-85
2024/03/30 11:09:23;;;;;;;11.00;2.80;;;;;;;14.12;43.46;99128.06;5005434;28;20518;-85
2024/03/30 11:11:52;;;;;;;9.27;2.60;;;;;;;14.15;42.71;99138.69;4982336;28;20046;-86
2024/03/30 11:14:20;;;;;;;8.73;2.50;;;;;;;14.19;43.50;99133.63;4984372;28;20045;-86
2024/03/30 11:16:51;;;;;;;9.63;2.55;;;;;;;14.21;42.85;99115.00;4974011;28;20054;-85
2024/03/30 11:19:30;;;;;;;13.15;2.72;;;;;;;14.24;42.19;99112.72;4977702;28;20196;-86
2024/03/30 11:22:05;;;;;;;9.30;2.38;;;;;;;14.23;41.65;99118.41;4988917;28;20522;-85
2024/03/30 11:24:37;;;;;;;13.13;2.67;;;;;;;14.26;42.73;99126.28;4974803;28;20042;-86
2024/03/30 11:27:08;;;;;;;11.17;2.40;;;;;;;14.27;42.62;99126.06;4981129;28;20034;-86
2024/03/30 11:29:47;;;;;;;12.02;2.47;;;;;;;14.28;41.60;99127.75;4994907;28;20042;-86
2024/03/30 11:32:19;;;;;;;12.10;2.60;;;;;;;14.30;42.07;99128.41;4977516;28;20064;-85
2024/03/30 11:34:58;;;;;;;10.15;2.60;;;;;;;14.33;41.06;99139.03;4993282;28;20050;-86
2024/03/30 11:37:26;;;;;;;17.33;2.67;;;;;;;14.33;42.49;99157.44;4978383;28;20062;-85
2024/03/30 11:40:05;;;;;;;12.25;2.95;;;;;;;14.36;41.01;99146.88;4984405;28;20041;-86
2024/03/30 11:42:43;;;;;;;15.23;3.30;;;;;;;14.37;41.03;99158.72;4997763;28;20598;-85
2024/03/30 11:45:14;;;;;;;16.20;3.20;;;;;;;14.39;41.72;99154.75;4995401;28;20045;-86
2024/03/30 11:47:41;;;;;;;12.25;2.55;;;;;;;14.42;41.75;99149.88;4993323;28;20049;-85
2024/03/30 11:50:15;;;;;;;15.82;3.38;;;;;;;14.41;40.32;99135.28;5005436;28;20056;-85
2024/03/30 11:52:45;;;;;;;9.30;2.50;;;;;;;14.44;41.13;99151.38;4995409;28;20045;-86